createdAt,value
2024-02-26T00:01:13.181Z,85.70
2024-02-26T00:06:16.896Z,85.70
2024-02-26T00:11:20.618Z,85.60
2024-02-26T00:16:25.671Z,85.80
2024-02-26T00:21:29.227Z,85.70
2024-02-26T00:26:32.815Z,85.80
2024-02-26T00:31:39.313Z,85.60
2024-02-26T00:36:42.934Z,85.50
2024-02-26T00:41:46.553Z,85.60
2024-02-26T00:46:51.599Z,85.70
2024-02-26T00:51:55.164Z,85.50
2024-02-26T00:56:58.898Z,85.80
2024-02-26T01:02:05.516Z,85.50
2024-02-26T01:07:09.188Z,85.60
2024-02-26T01:12:13.006Z,85.60
2024-02-26T01:17:18.013Z,85.70
2024-02-26T01:22:22.209Z,85.60
2024-02-26T01:27:28.537Z,85.60
2024-02-26T01:32:33.743Z,85.50
2024-02-26T01:37:37.296Z,85.60
2024-02-26T01:42:42.205Z,85.50
2024-02-26T01:47:47.713Z,85.40
2024-02-26T01:52:52.605Z,85.60
2024-02-26T01:57:56.450Z,85.70
2024-02-26T02:03:01.612Z,85.70
2024-02-26T02:08:06.372Z,85.50
2024-02-26T02:13:10.270Z,85.60
2024-02-26T02:18:15.521Z,85.50
2024-02-26T02:23:20.710Z,85.50
2024-02-26T02:28:24.456Z,85.50
2024-02-26T02:33:28.901Z,85.40
2024-02-26T02:38:35.187Z,85.50
2024-02-26T02:43:38.799Z,85.20
2024-02-26T02:48:44.257Z,85.50
2024-02-26T02:53:49.432Z,85.50
2024-02-26T02:58:53.028Z,85.30
2024-02-26T03:03:56.624Z,85.30
2024-02-26T03:09:02.268Z,85.40
2024-02-26T03:14:06.233Z,85.40
2024-02-26T03:19:09.972Z,85.30
2024-02-26T03:24:15.976Z,85.40
2024-02-26T03:29:19.627Z,85.30
2024-02-26T03:34:23.354Z,85.20
2024-02-26T03:39:28.644Z,85.20
2024-02-26T03:44:32.262Z,85.30
2024-02-26T03:49:36.016Z,85.40
2024-02-26T03:54:41.109Z,85.30
2024-02-26T03:59:44.720Z,85.30
2024-02-26T04:04:49.051Z,85.40
2024-02-26T04:09:54.199Z,85.20
2024-02-26T04:14:57.923Z,85.10
2024-02-26T04:20:01.562Z,85.00
2024-02-26T04:25:07.175Z,85.00
2024-02-26T04:30:11.673Z,85.00
2024-02-26T04:35:15.290Z,84.90
2024-02-26T04:40:20.282Z,85.10
2024-02-26T04:45:23.878Z,85.10
2024-02-26T04:50:27.529Z,85.00
2024-02-26T04:55:32.554Z,85.00
2024-02-26T05:00:36.181Z,84.80
2024-02-26T05:05:39.881Z,84.80
2024-02-26T05:10:44.918Z,84.90
2024-02-26T05:15:50.467Z,84.70
2024-02-26T05:20:54.114Z,84.70
2024-02-26T05:25:59.169Z,84.50
2024-02-26T05:31:03.026Z,84.90
2024-02-26T05:36:07.168Z,84.60
2024-02-26T05:41:12.149Z,84.40
2024-02-26T05:46:16.724Z,84.80
2024-02-26T05:51:20.517Z,84.70
2024-02-26T05:56:25.656Z,84.50
2024-02-26T06:01:29.344Z,84.30
2024-02-26T06:06:33.342Z,84.50
2024-02-26T06:11:38.401Z,84.40
2024-02-26T06:16:42.001Z,84.20
2024-02-26T06:21:45.576Z,84.40
2024-02-26T06:26:50.619Z,84.60
2024-02-26T06:31:54.230Z,84.40
2024-02-26T06:36:57.815Z,84.30
2024-02-26T06:42:02.932Z,84.40
2024-02-26T06:47:06.938Z,84.40
2024-02-26T06:52:10.529Z,84.50
2024-02-26T06:57:15.688Z,84.40
2024-02-26T07:02:19.283Z,84.30
2024-02-26T07:07:23.815Z,84.50
2024-02-26T07:12:28.884Z,84.30
2024-02-26T07:17:32.485Z,84.40
2024-02-26T07:22:36.095Z,84.00
2024-02-26T07:27:41.250Z,84.10
2024-02-26T07:32:49.118Z,84.00
2024-02-26T07:37:54.780Z,83.90
2024-02-26T07:42:59.845Z,84.10
2024-02-26T07:48:03.492Z,84.00
2024-02-26T07:53:07.197Z,83.90
2024-02-26T07:58:12.213Z,83.90
2024-02-26T08:03:17.353Z,84.10
2024-02-26T08:08:21.148Z,84.00
2024-02-26T08:13:26.198Z,84.00
2024-02-26T08:18:30.075Z,84.00
2024-02-26T08:23:33.778Z,84.00
2024-02-26T08:28:39.382Z,83.70
2024-02-26T08:33:43.167Z,83.90
2024-02-26T08:38:46.874Z,83.80
2024-02-26T08:43:51.894Z,83.90
2024-02-26T08:48:55.589Z,84.30
2024-02-26T08:53:59.988Z,83.80
2024-02-26T08:59:05.584Z,83.70
2024-02-26T09:04:09.247Z,83.90
2024-02-26T09:09:12.956Z,83.60
2024-02-26T09:14:18.016Z,83.70
2024-02-26T09:19:21.815Z,83.60
2024-02-26T09:24:25.574Z,84.00
2024-02-26T09:29:30.808Z,83.80
2024-02-26T09:34:35.291Z,83.80
2024-02-26T09:39:39.093Z,83.60
2024-02-26T09:44:45.217Z,83.90
2024-02-26T09:49:50.478Z,83.70
2024-02-26T09:54:54.218Z,83.70
2024-02-26T10:00:03.029Z,83.60
2024-02-26T10:05:07.827Z,83.70
2024-02-26T10:10:12.225Z,83.80
2024-02-26T10:15:17.396Z,83.70
2024-02-26T10:20:23.435Z,83.70
2024-02-26T10:25:27.374Z,83.70
2024-02-26T10:30:32.992Z,83.70
2024-02-26T10:35:41.779Z,83.70
2024-02-26T10:40:45.487Z,83.30
2024-02-26T10:45:50.577Z,83.60
2024-02-26T10:50:54.503Z,83.60
2024-02-26T10:56:01.464Z,83.70
2024-02-26T11:01:07.588Z,83.60
2024-02-26T11:06:11.956Z,83.80
2024-02-26T11:11:16.649Z,83.50
2024-02-26T11:16:23.067Z,83.60
2024-02-26T11:21:31.353Z,83.50
2024-02-26T11:26:36.283Z,83.30
2024-02-26T11:31:42.503Z,83.40
2024-02-26T11:36:46.126Z,83.60
2024-02-26T11:41:49.724Z,83.30
2024-02-26T11:46:54.827Z,83.40
2024-02-26T11:52:01.070Z,83.40
2024-02-26T11:57:04.853Z,83.60
2024-02-26T12:02:10.187Z,83.20
2024-02-26T12:07:15.209Z,83.80
2024-02-26T12:12:21.178Z,83.60
2024-02-26T12:17:28.887Z,83.30
2024-02-26T12:22:32.584Z,83.30
2024-02-26T12:27:36.197Z,83.40
2024-02-26T12:32:41.355Z,83.50
2024-02-26T12:37:45.168Z,83.30
2024-02-26T12:42:48.887Z,83.50
2024-02-26T12:47:54.055Z,83.40
2024-02-26T12:52:57.729Z,83.30
2024-02-26T12:58:01.351Z,83.40
2024-02-26T13:03:07.055Z,83.40
2024-02-26T13:08:10.740Z,83.20
2024-02-26T13:13:17.384Z,83.40
2024-02-26T13:18:22.622Z,83.30
2024-02-26T13:23:26.348Z,83.20
2024-02-26T13:28:29.963Z,83.30
2024-02-26T13:33:35.194Z,83.10
2024-02-26T13:38:41.055Z,83.10
2024-02-26T13:43:46.094Z,83.30
2024-02-26T13:48:51.220Z,83.20
2024-02-26T13:53:55.004Z,83.20
2024-02-26T13:58:58.632Z,83.30
2024-02-26T14:04:05.956Z,83.20
2024-02-26T14:09:10.706Z,83.20
2024-02-26T14:14:14.549Z,83.20
2024-02-26T14:19:19.620Z,83.20
2024-02-26T14:24:23.285Z,83.20
2024-02-26T14:29:26.858Z,83.30
2024-02-26T14:34:32.047Z,83.30
2024-02-26T14:39:35.948Z,83.30
2024-02-26T14:44:39.662Z,83.30
2024-02-26T14:49:44.910Z,83.30
2024-02-26T14:54:48.589Z,83.30
2024-02-26T14:59:52.380Z,83.10
2024-02-26T15:04:57.453Z,83.30
2024-02-26T15:10:02.061Z,83.20
2024-02-26T15:15:07.274Z,83.10
2024-02-26T15:20:13.873Z,83.10
2024-02-26T15:25:17.890Z,83.20
2024-02-26T15:30:21.689Z,83.30
2024-02-26T15:35:26.767Z,83.30
2024-02-26T15:40:30.373Z,83.20
2024-02-26T15:45:35.036Z,83.40
2024-02-26T15:50:42.446Z,83.40
2024-02-26T15:55:46.187Z,83.10
2024-02-26T16:00:50.036Z,83.00
2024-02-26T16:05:55.246Z,82.90
2024-02-26T16:10:59.403Z,83.00
2024-02-26T16:16:06.817Z,83.00
2024-02-26T16:21:12.335Z,83.20
2024-02-26T16:26:15.941Z,83.20
2024-02-26T16:31:19.508Z,83.20
2024-02-26T16:36:24.546Z,83.10
2024-02-26T16:41:28.156Z,83.20
2024-02-26T16:46:31.818Z,83.30
2024-02-26T16:51:39.552Z,83.20
2024-02-26T16:56:43.123Z,83.20
2024-02-26T17:01:47.977Z,83.20
2024-02-26T17:06:54.511Z,83.30
2024-02-26T17:11:58.478Z,83.20
2024-02-26T17:17:02.131Z,83.30
2024-02-26T17:22:08.426Z,83.30
2024-02-26T17:27:12.048Z,83.30
2024-02-26T17:32:16.472Z,83.10
2024-02-26T17:37:21.726Z,83.20
2024-02-26T17:42:25.335Z,83.50
2024-02-26T17:47:29.012Z,83.00
2024-02-26T17:52:37.773Z,83.20
2024-02-26T17:57:41.684Z,82.90
2024-02-26T18:02:45.263Z,83.10
2024-02-26T18:07:50.265Z,83.50
2024-02-26T18:12:54.490Z,82.80
2024-02-26T18:17:58.361Z,83.30
2024-02-26T18:23:04.251Z,83.20
2024-02-26T18:28:07.942Z,83.20
2024-02-26T18:33:11.683Z,83.20
2024-02-26T18:38:16.889Z,83.20
2024-02-26T18:43:20.477Z,83.10
2024-02-26T18:48:25.719Z,83.10
2024-02-26T18:53:30.839Z,82.90
2024-02-26T18:58:34.415Z,83.10
2024-02-26T19:03:38.068Z,83.20
2024-02-26T19:08:43.144Z,83.00
2024-02-26T19:13:46.717Z,82.90
2024-02-26T19:18:50.424Z,82.80
2024-02-26T19:23:55.519Z,82.90
2024-02-26T19:28:59.122Z,82.90
2024-02-26T19:34:03.040Z,82.80
2024-02-26T19:39:09.011Z,82.90
2024-02-26T19:44:14.375Z,82.90
2024-02-26T19:49:17.998Z,82.90
2024-02-26T19:54:23.073Z,82.80
2024-02-26T19:59:26.724Z,82.70
2024-02-26T20:04:31.164Z,82.70
2024-02-26T20:09:36.347Z,82.60
2024-02-26T20:14:40.339Z,82.40
2024-02-26T20:19:44.836Z,82.30
2024-02-26T20:24:50.167Z,82.50
2024-02-26T20:29:57.202Z,82.50
2024-02-26T20:35:01.104Z,82.50
2024-02-26T20:40:08.554Z,82.40
2024-02-26T20:45:13.313Z,82.70
2024-02-26T20:50:17.131Z,82.60
2024-02-26T20:55:22.888Z,82.40
2024-02-26T21:00:26.513Z,82.50
2024-02-26T21:05:30.220Z,82.60
2024-02-26T21:10:35.773Z,82.30
2024-02-26T21:15:39.707Z,82.40
2024-02-26T21:20:43.542Z,82.30
2024-02-26T21:25:48.632Z,82.50
2024-02-26T21:30:55.761Z,82.20
2024-02-26T21:35:59.416Z,82.20
2024-02-26T21:41:04.526Z,82.10
2024-02-26T21:46:08.180Z,82.30
2024-02-26T21:51:11.824Z,82.40
2024-02-26T21:56:17.087Z,82.20
2024-02-26T22:01:20.709Z,81.90
2024-02-26T22:06:24.390Z,82.10
2024-02-26T22:11:29.557Z,82.00
2024-02-26T22:16:33.406Z,82.00
2024-02-26T22:21:37.537Z,82.00
2024-02-26T22:26:45.297Z,82.00
2024-02-26T22:31:53.450Z,81.90
2024-02-26T22:36:57.084Z,81.80
2024-02-26T22:42:02.606Z,81.70
2024-02-26T22:47:06.833Z,82.10
2024-02-26T22:52:10.624Z,81.80
2024-02-26T22:57:15.716Z,81.80
2024-02-26T23:02:20.074Z,81.80
2024-02-26T23:07:23.779Z,81.70
2024-02-26T23:12:28.860Z,82.00
2024-02-26T23:17:34.722Z,81.80
2024-02-26T23:22:38.442Z,82.10
2024-02-26T23:27:45.170Z,81.80
2024-02-26T23:32:48.878Z,81.90
2024-02-26T23:37:52.457Z,81.90
2024-02-26T23:42:57.632Z,81.80
2024-02-26T23:48:01.366Z,81.60
2024-02-26T23:53:05.826Z,81.70
2024-02-26T23:58:10.807Z,81.70
